sensor_id;sensor_type;location;lat;lon;timestamp;P1;durP1;ratioP1;P2;durP2;ratioP2
82005;SDS011;71529;47.484;19.064;2024-01-30T00:00:37;28.10;;;15.15;;
82005;SDS011;71529;47.484;19.064;2024-01-30T00:03:06;26.10;;;15.68;;
82005;SDS011;71529;47.484;19.064;2024-01-30T00:05:36;26.38;;;15.82;;
82005;SDS011;71529;47.484;19.064;2024-01-30T00:08:05;28.20;;;14.98;;
82005;SDS011;71529;47.484;19.064;2024-01-30T00:10:34;25.50;;;16.33;;
82005;SDS011;71529;47.484;19.064;2024-01-30T00:13:03;27.20;;;16.05;;
82005;SDS011;71529;47.484;19.064;2024-01-30T00:15:35;26.75;;;16.30;;
82005;SDS011;71529;47.484;19.064;2024-01-30T00:18:03;31.50;;;16.08;;
82005;SDS011;71529;47.484;19.064;2024-01-30T00:20:32;26.05;;;16.20;;
82005;SDS011;71529;47.484;19.064;2024-01-30T00:23:01;30.10;;;16.67;;
82005;SDS011;71529;47.484;19.064;2024-01-30T00:25:31;28.92;;;16.42;;
82005;SDS011;71529;47.484;19.064;2024-01-30T00:28:00;31.63;;;17.33;;
82005;SDS011;71529;47.484;19.064;2024-01-30T00:30:29;42.20;;;21.35;;
82005;SDS011;71529;47.484;19.064;2024-01-30T00:33:01;34.72;;;18.45;;
82005;SDS011;71529;47.484;19.064;2024-01-30T00:35:30;32.80;;;19.17;;
82005;SDS011;71529;47.484;19.064;2024-01-30T00:37:59;35.95;;;19.27;;
82005;SDS011;71529;47.484;19.064;2024-01-30T00:40:28;28.75;;;18.00;;
82005;SDS011;71529;47.484;19.064;2024-01-30T00:42:57;30.35;;;17.98;;
82005;SDS011;71529;47.484;19.064;2024-01-30T00:45:26;30.35;;;17.88;;
82005;SDS011;71529;47.484;19.064;2024-01-30T00:47:54;29.77;;;17.08;;
82005;SDS011;71529;47.484;19.064;2024-01-30T00:50:26;35.28;;;19.15;;
82005;SDS011;71529;47.484;19.064;2024-01-30T00:52:55;35.42;;;18.30;;
82005;SDS011;71529;47.484;19.064;2024-01-30T00:55:24;34.55;;;16.83;;
82005;SDS011;71529;47.484;19.064;2024-01-30T00:57:54;25.23;;;14.60;;
82005;SDS011;71529;47.484;19.064;2024-01-30T01:00:22;26.70;;;14.65;;
82005;SDS011;71529;47.484;19.064;2024-01-30T01:02:54;25.60;;;13.88;;
82005;SDS011;71529;47.484;19.064;2024-01-30T01:05:26;22.90;;;14.13;;
82005;SDS011;71529;47.484;19.064;2024-01-30T01:07:56;24.65;;;14.50;;
82005;SDS011;71529;47.484;19.064;2024-01-30T01:10:24;22.90;;;14.10;;
82005;SDS011;71529;47.484;19.064;2024-01-30T01:12:53;21.70;;;13.90;;
82005;SDS011;71529;47.484;19.064;2024-01-30T01:15:22;22.85;;;13.80;;
82005;SDS011;71529;47.484;19.064;2024-01-30T01:17:51;23.70;;;13.75;;
82005;SDS011;71529;47.484;19.064;2024-01-30T01:20:20;23.23;;;13.77;;
82005;SDS011;71529;47.484;19.064;2024-01-30T01:22:52;22.70;;;14.40;;
82005;SDS011;71529;47.484;19.064;2024-01-30T01:25:21;21.90;;;13.80;;
82005;SDS011;71529;47.484;19.064;2024-01-30T01:27:50;28.30;;;16.08;;
82005;SDS011;71529;47.484;19.064;2024-01-30T01:30:19;29.25;;;13.35;;
82005;SDS011;71529;47.484;19.064;2024-01-30T01:35:28;27.05;;;14.50;;
82005;SDS011;71529;47.484;19.064;2024-01-30T01:38:00;30.17;;;15.43;;
82005;SDS011;71529;47.484;19.064;2024-01-30T01:40:29;20.67;;;13.68;;
82005;SDS011;71529;47.484;19.064;2024-01-30T01:42:58;21.80;;;14.30;;
82005;SDS011;71529;47.484;19.064;2024-01-30T01:45:27;26.88;;;13.55;;
82005;SDS011;71529;47.484;19.064;2024-01-30T01:47:56;23.20;;;13.77;;
82005;SDS011;71529;47.484;19.064;2024-01-30T01:50:25;23.63;;;15.57;;
82005;SDS011;71529;47.484;19.064;2024-01-30T01:52:54;28.40;;;14.68;;
82005;SDS011;71529;47.484;19.064;2024-01-30T01:55:26;31.85;;;17.33;;
82005;SDS011;71529;47.484;19.064;2024-01-30T02:00:29;27.55;;;15.70;;
82005;SDS011;71529;47.484;19.064;2024-01-30T02:02:59;29.43;;;18.00;;
82005;SDS011;71529;47.484;19.064;2024-01-30T02:05:29;32.55;;;19.48;;
82005;SDS011;71529;47.484;19.064;2024-01-30T02:07:58;33.00;;;18.40;;
82005;SDS011;71529;47.484;19.064;2024-01-30T02:10:30;32.97;;;19.30;;
82005;SDS011;71529;47.484;19.064;2024-01-30T02:13:00;36.05;;;20.75;;
82005;SDS011;71529;47.484;19.064;2024-01-30T02:15:30;30.25;;;19.85;;
82005;SDS011;71529;47.484;19.064;2024-01-30T02:17:59;40.70;;;20.42;;
82005;SDS011;71529;47.484;19.064;2024-01-30T02:20:28;32.22;;;18.80;;
82005;SDS011;71529;47.484;19.064;2024-01-30T02:23:02;29.00;;;17.25;;
82005;SDS011;71529;47.484;19.064;2024-01-30T02:25:32;27.58;;;15.90;;
82005;SDS011;71529;47.484;19.064;2024-01-30T02:28:02;29.33;;;17.65;;
82005;SDS011;71529;47.484;19.064;2024-01-30T02:30:32;30.88;;;16.85;;
82005;SDS011;71529;47.484;19.064;2024-01-30T02:33:00;32.78;;;17.75;;
82005;SDS011;71529;47.484;19.064;2024-01-30T02:35:29;31.10;;;17.35;;
82005;SDS011;71529;47.484;19.064;2024-01-30T02:37:58;27.88;;;16.33;;
82005;SDS011;71529;47.484;19.064;2024-01-30T02:40:30;24.42;;;14.13;;
82005;SDS011;71529;47.484;19.064;2024-01-30T02:43:01;29.75;;;14.80;;
82005;SDS011;71529;47.484;19.064;2024-01-30T02:45:30;18.83;;;12.07;;
82005;SDS011;71529;47.484;19.064;2024-01-30T02:47:59;23.08;;;13.63;;
82005;SDS011;71529;47.484;19.064;2024-01-30T02:50:29;26.02;;;14.27;;
82005;SDS011;71529;47.484;19.064;2024-01-30T02:52:58;29.15;;;15.23;;
82005;SDS011;71529;47.484;19.064;2024-01-30T02:55:30;20.17;;;13.13;;
82005;SDS011;71529;47.484;19.064;2024-01-30T02:57:59;20.42;;;12.02;;
82005;SDS011;71529;47.484;19.064;2024-01-30T03:00:28;20.13;;;12.43;;
82005;SDS011;71529;47.484;19.064;2024-01-30T03:02:57;16.00;;;11.20;;
82005;SDS011;71529;47.484;19.064;2024-01-30T03:05:26;19.65;;;11.55;;
82005;SDS011;71529;47.484;19.064;2024-01-30T03:07:54;20.80;;;13.35;;
82005;SDS011;71529;47.484;19.064;2024-01-30T03:10:23;22.05;;;12.23;;
82005;SDS011;71529;47.484;19.064;2024-01-30T03:12:55;18.90;;;12.05;;
82005;SDS011;71529;47.484;19.064;2024-01-30T03:15:24;21.65;;;13.02;;
82005;SDS011;71529;47.484;19.064;2024-01-30T03:17:54;25.02;;;13.93;;
82005;SDS011;71529;47.484;19.064;2024-01-30T03:20:22;22.92;;;13.57;;
82005;SDS011;71529;47.484;19.064;2024-01-30T03:22:53;25.15;;;14.52;;
82005;SDS011;71529;47.484;19.064;2024-01-30T03:25:23;44.88;;;19.65;;
82005;SDS011;71529;47.484;19.064;2024-01-30T03:27:51;26.83;;;13.52;;
82005;SDS011;71529;47.484;19.064;2024-01-30T03:30:23;48.72;;;26.58;;
82005;SDS011;71529;47.484;19.064;2024-01-30T03:32:52;30.27;;;18.23;;
82005;SDS011;71529;47.484;19.064;2024-01-30T03:35:21;24.13;;;14.75;;
82005;SDS011;71529;47.484;19.064;2024-01-30T03:37:50;31.35;;;19.10;;
82005;SDS011;71529;47.484;19.064;2024-01-30T03:40:19;31.30;;;16.75;;
82005;SDS011;71529;47.484;19.064;2024-01-30T03:42:48;28.70;;;16.77;;
82005;SDS011;71529;47.484;19.064;2024-01-30T03:45:20;23.45;;;16.30;;
82005;SDS011;71529;47.484;19.064;2024-01-30T03:47:49;34.53;;;18.08;;
82005;SDS011;71529;47.484;19.064;2024-01-30T03:50:18;27.50;;;17.85;;
82005;SDS011;71529;47.484;19.064;2024-01-30T03:52:47;23.35;;;15.00;;
82005;SDS011;71529;47.484;19.064;2024-01-30T03:55:16;25.65;;;16.05;;
82005;SDS011;71529;47.484;19.064;2024-01-30T03:57:45;22.90;;;13.95;;
82005;SDS011;71529;47.484;19.064;2024-01-30T04:00:14;20.83;;;15.00;;
82005;SDS011;71529;47.484;19.064;2024-01-30T04:02:46;24.10;;;13.90;;
82005;SDS011;71529;47.484;19.064;2024-01-30T04:05:16;24.08;;;15.02;;
82005;SDS011;71529;47.484;19.064;2024-01-30T04:07:46;22.67;;;14.77;;
82005;SDS011;71529;47.484;19.064;2024-01-30T04:10:14;19.48;;;12.27;;
82005;SDS011;71529;47.484;19.064;2024-01-30T04:12:44;20.98;;;13.63;;
82005;SDS011;71529;47.484;19.064;2024-01-30T04:15:12;20.90;;;13.80;;
82005;SDS011;71529;47.484;19.064;2024-01-30T04:17:42;21.98;;;13.55;;
82005;SDS011;71529;47.484;19.064;2024-01-30T04:20:15;23.88;;;14.18;;
82005;SDS011;71529;47.484;19.064;2024-01-30T04:22:45;19.58;;;13.27;;
82005;SDS011;71529;47.484;19.064;2024-01-30T04:25:15;19.23;;;11.93;;
82005;SDS011;71529;47.484;19.064;2024-01-30T04:27:44;25.65;;;14.45;;
82005;SDS011;71529;47.484;19.064;2024-01-30T04:30:13;19.25;;;12.48;;
82005;SDS011;71529;47.484;19.064;2024-01-30T04:32:45;20.30;;;12.40;;
82005;SDS011;71529;47.484;19.064;2024-01-30T04:35:17;23.13;;;13.32;;
82005;SDS011;71529;47.484;19.064;2024-01-30T04:37:49;23.65;;;13.32;;
82005;SDS011;71529;47.484;19.064;2024-01-30T04:40:18;23.20;;;13.63;;
82005;SDS011;71529;47.484;19.064;2024-01-30T04:42:47;20.45;;;12.95;;
82005;SDS011;71529;47.484;19.064;2024-01-30T04:45:16;25.10;;;13.50;;
82005;SDS011;71529;47.484;19.064;2024-01-30T04:47:45;22.98;;;12.60;;
82005;SDS011;71529;47.484;19.064;2024-01-30T04:50:16;20.15;;;12.70;;
82005;SDS011;71529;47.484;19.064;2024-01-30T04:52:45;22.60;;;11.98;;
82005;SDS011;71529;47.484;19.064;2024-01-30T04:55:14;20.80;;;13.98;;
82005;SDS011;71529;47.484;19.064;2024-01-30T04:57:44;19.42;;;12.48;;
82005;SDS011;71529;47.484;19.064;2024-01-30T05:00:13;18.17;;;11.50;;
82005;SDS011;71529;47.484;19.064;2024-01-30T05:02:43;19.60;;;11.30;;
82005;SDS011;71529;47.484;19.064;2024-01-30T05:05:12;23.98;;;13.05;;
82005;SDS011;71529;47.484;19.064;2024-01-30T05:07:44;19.50;;;13.07;;
82005;SDS011;71529;47.484;19.064;2024-01-30T05:10:13;21.27;;;13.48;;
82005;SDS011;71529;47.484;19.064;2024-01-30T05:12:42;22.20;;;12.85;;
82005;SDS011;71529;47.484;19.064;2024-01-30T05:15:12;22.13;;;14.27;;
82005;SDS011;71529;47.484;19.064;2024-01-30T05:17:41;23.60;;;13.43;;
82005;SDS011;71529;47.484;19.064;2024-01-30T05:20:10;26.85;;;14.50;;
82005;SDS011;71529;47.484;19.064;2024-01-30T05:22:40;25.83;;;14.70;;
82005;SDS011;71529;47.484;19.064;2024-01-30T05:25:13;29.05;;;13.82;;
82005;SDS011;71529;47.484;19.064;2024-01-30T05:27:42;21.65;;;13.65;;
82005;SDS011;71529;47.484;19.064;2024-01-30T05:30:12;26.25;;;14.32;;
82005;SDS011;71529;47.484;19.064;2024-01-30T05:32:41;24.52;;;13.95;;
82005;SDS011;71529;47.484;19.064;2024-01-30T05:35:10;23.88;;;13.60;;
82005;SDS011;71529;47.484;19.064;2024-01-30T05:37:39;26.92;;;13.18;;
82005;SDS011;71529;47.484;19.064;2024-01-30T05:40:09;26.58;;;13.07;;
82005;SDS011;71529;47.484;19.064;2024-01-30T05:42:41;21.35;;;13.70;;
82005;SDS011;71529;47.484;19.064;2024-01-30T05:45:10;25.67;;;13.10;;
82005;SDS011;71529;47.484;19.064;2024-01-30T05:47:40;24.13;;;13.52;;
82005;SDS011;71529;47.484;19.064;2024-01-30T05:50:09;23.95;;;14.57;;
82005;SDS011;71529;47.484;19.064;2024-01-30T05:52:38;23.77;;;14.48;;
82005;SDS011;71529;47.484;19.064;2024-01-30T05:55:07;25.52;;;14.50;;
82005;SDS011;71529;47.484;19.064;2024-01-30T05:57:37;23.60;;;15.07;;
82005;SDS011;71529;47.484;19.064;2024-01-30T06:00:09;26.17;;;15.70;;
82005;SDS011;71529;47.484;19.064;2024-01-30T06:02:39;32.20;;;16.23;;
82005;SDS011;71529;47.484;19.064;2024-01-30T06:05:08;29.65;;;16.27;;
82005;SDS011;71529;47.484;19.064;2024-01-30T06:07:38;33.45;;;18.40;;
82005;SDS011;71529;47.484;19.064;2024-01-30T06:10:08;36.58;;;18.95;;
82005;SDS011;71529;47.484;19.064;2024-01-30T06:12:37;33.67;;;18.85;;
82005;SDS011;71529;47.484;19.064;2024-01-30T06:15:09;36.15;;;19.42;;
82005;SDS011;71529;47.484;19.064;2024-01-30T06:17:38;34.38;;;19.75;;
82005;SDS011;71529;47.484;19.064;2024-01-30T06:20:07;32.28;;;20.15;;
82005;SDS011;71529;47.484;19.064;2024-01-30T06:22:36;32.80;;;19.52;;
82005;SDS011;71529;47.484;19.064;2024-01-30T06:25:06;32.45;;;19.70;;
82005;SDS011;71529;47.484;19.064;2024-01-30T06:27:38;35.35;;;19.70;;
82005;SDS011;71529;47.484;19.064;2024-01-30T06:30:10;30.85;;;18.55;;
82005;SDS011;71529;47.484;19.064;2024-01-30T06:32:40;42.83;;;19.03;;
82005;SDS011;71529;47.484;19.064;2024-01-30T06:35:09;38.75;;;19.15;;
82005;SDS011;71529;47.484;19.064;2024-01-30T06:37:38;34.25;;;19.00;;
82005;SDS011;71529;47.484;19.064;2024-01-30T06:40:08;35.72;;;19.42;;
82005;SDS011;71529;47.484;19.064;2024-01-30T06:42:38;35.60;;;19.25;;
82005;SDS011;71529;47.484;19.064;2024-01-30T06:45:10;32.03;;;19.25;;
82005;SDS011;71529;47.484;19.064;2024-01-30T06:47:38;31.02;;;18.70;;
82005;SDS011;71529;47.484;19.064;2024-01-30T06:50:08;32.50;;;19.92;;
82005;SDS011;71529;47.484;19.064;2024-01-30T06:52:37;29.95;;;19.23;;
82005;SDS011;71529;47.484;19.064;2024-01-30T06:55:06;36.08;;;20.83;;
82005;SDS011;71529;47.484;19.064;2024-01-30T06:57:36;32.92;;;19.17;;
82005;SDS011;71529;47.484;19.064;2024-01-30T07:00:06;29.17;;;19.65;;
82005;SDS011;71529;47.484;19.064;2024-01-30T07:02:38;32.88;;;18.55;;
82005;SDS011;71529;47.484;19.064;2024-01-30T07:05:08;31.73;;;17.98;;
82005;SDS011;71529;47.484;19.064;2024-01-30T07:07:38;27.50;;;17.63;;
82005;SDS011;71529;47.484;19.064;2024-01-30T07:10:08;35.45;;;18.13;;
82005;SDS011;71529;47.484;19.064;2024-01-30T07:12:37;34.03;;;18.63;;
82005;SDS011;71529;47.484;19.064;2024-01-30T07:15:06;39.35;;;18.58;;
82005;SDS011;71529;47.484;19.064;2024-01-30T07:17:42;34.63;;;17.30;;
82005;SDS011;71529;47.484;19.064;2024-01-30T07:20:12;36.25;;;20.17;;
82005;SDS011;71529;47.484;19.064;2024-01-30T07:22:41;30.50;;;18.35;;
82005;SDS011;71529;47.484;19.064;2024-01-30T07:25:10;29.75;;;16.45;;
82005;SDS011;71529;47.484;19.064;2024-01-30T07:27:38;29.52;;;17.55;;
82005;SDS011;71529;47.484;19.064;2024-01-30T07:30:08;31.40;;;18.83;;
82005;SDS011;71529;47.484;19.064;2024-01-30T07:32:37;32.28;;;18.10;;
82005;SDS011;71529;47.484;19.064;2024-01-30T07:35:09;35.97;;;19.25;;
82005;SDS011;71529;47.484;19.064;2024-01-30T07:37:38;33.05;;;18.13;;
82005;SDS011;71529;47.484;19.064;2024-01-30T07:40:07;33.70;;;17.40;;
82005;SDS011;71529;47.484;19.064;2024-01-30T07:42:37;26.70;;;17.00;;
82005;SDS011;71529;47.484;19.064;2024-01-30T07:45:06;27.60;;;17.27;;
82005;SDS011;71529;47.484;19.064;2024-01-30T07:47:36;27.45;;;17.60;;
82005;SDS011;71529;47.484;19.064;2024-01-30T07:50:05;29.95;;;16.17;;
82005;SDS011;71529;47.484;19.064;2024-01-30T07:55:07;29.13;;;15.63;;
82005;SDS011;71529;47.484;19.064;2024-01-30T07:57:38;26.27;;;15.02;;
82005;SDS011;71529;47.484;19.064;2024-01-30T08:00:07;25.73;;;14.38;;
82005;SDS011;71529;47.484;19.064;2024-01-30T08:02:37;32.78;;;16.80;;
82005;SDS011;71529;47.484;19.064;2024-01-30T08:05:06;27.75;;;16.40;;
82005;SDS011;71529;47.484;19.064;2024-01-30T08:07:40;29.30;;;16.60;;
82005;SDS011;71529;47.484;19.064;2024-01-30T08:10:11;27.25;;;16.67;;
82005;SDS011;71529;47.484;19.064;2024-01-30T08:12:40;29.73;;;16.73;;
82005;SDS011;71529;47.484;19.064;2024-01-30T08:15:09;27.25;;;15.35;;
82005;SDS011;71529;47.484;19.064;2024-01-30T08:17:40;25.67;;;16.35;;
82005;SDS011;71529;47.484;19.064;2024-01-30T08:20:13;27.60;;;15.57;;
82005;SDS011;71529;47.484;19.064;2024-01-30T08:22:42;25.90;;;15.27;;
82005;SDS011;71529;47.484;19.064;2024-01-30T08:25:11;26.83;;;14.80;;
82005;SDS011;71529;47.484;19.064;2024-01-30T08:27:40;22.83;;;15.02;;
82005;SDS011;71529;47.484;19.064;2024-01-30T08:30:09;26.30;;;16.27;;
82005;SDS011;71529;47.484;19.064;2024-01-30T08:32:39;26.35;;;16.70;;
82005;SDS011;71529;47.484;19.064;2024-01-30T08:35:08;20.30;;;14.15;;
82005;SDS011;71529;47.484;19.064;2024-01-30T08:37:41;23.63;;;15.18;;
82005;SDS011;71529;47.484;19.064;2024-01-30T08:40:10;26.40;;;15.30;;
82005;SDS011;71529;47.484;19.064;2024-01-30T08:42:40;23.48;;;15.35;;
82005;SDS011;71529;47.484;19.064;2024-01-30T08:45:09;29.38;;;16.23;;
82005;SDS011;71529;47.484;19.064;2024-01-30T08:47:38;25.52;;;15.50;;
82005;SDS011;71529;47.484;19.064;2024-01-30T08:50:08;27.48;;;15.60;;
82005;SDS011;71529;47.484;19.064;2024-01-30T08:52:37;27.45;;;15.38;;
82005;SDS011;71529;47.484;19.064;2024-01-30T08:55:12;23.98;;;15.73;;
82005;SDS011;71529;47.484;19.064;2024-01-30T08:57:41;30.25;;;18.92;;
82005;SDS011;71529;47.484;19.064;2024-01-30T09:00:10;31.77;;;17.55;;
82005;SDS011;71529;47.484;19.064;2024-01-30T09:02:41;30.40;;;17.08;;
82005;SDS011;71529;47.484;19.064;2024-01-30T09:05:10;31.17;;;18.33;;
82005;SDS011;71529;47.484;19.064;2024-01-30T09:07:39;27.45;;;17.35;;
82005;SDS011;71529;47.484;19.064;2024-01-30T09:10:11;27.23;;;17.80;;
82005;SDS011;71529;47.484;19.064;2024-01-30T09:12:39;30.40;;;17.70;;
82005;SDS011;71529;47.484;19.064;2024-01-30T09:15:09;34.80;;;17.85;;
82005;SDS011;71529;47.484;19.064;2024-01-30T09:17:38;25.30;;;17.10;;
82005;SDS011;71529;47.484;19.064;2024-01-30T09:20:08;27.13;;;15.93;;
82005;SDS011;71529;47.484;19.064;2024-01-30T09:22:38;31.52;;;18.02;;
82005;SDS011;71529;47.484;19.064;2024-01-30T09:25:07;30.58;;;17.67;;
82005;SDS011;71529;47.484;19.064;2024-01-30T09:27:38;41.63;;;17.63;;
82005;SDS011;71529;47.484;19.064;2024-01-30T09:30:07;28.80;;;17.58;;
82005;SDS011;71529;47.484;19.064;2024-01-30T09:32:37;31.48;;;17.17;;
82005;SDS011;71529;47.484;19.064;2024-01-30T09:35:08;33.05;;;17.20;;
82005;SDS011;71529;47.484;19.064;2024-01-30T09:37:37;29.85;;;18.77;;
82005;SDS011;71529;47.484;19.064;2024-01-30T09:40:07;30.38;;;18.00;;
82005;SDS011;71529;47.484;19.064;2024-01-30T09:42:39;31.17;;;18.33;;
82005;SDS011;71529;47.484;19.064;2024-01-30T09:45:11;25.15;;;16.58;;
82005;SDS011;71529;47.484;19.064;2024-01-30T09:47:43;29.00;;;17.15;;
82005;SDS011;71529;47.484;19.064;2024-01-30T09:50:14;39.47;;;19.20;;
82005;SDS011;71529;47.484;19.064;2024-01-30T09:52:43;30.08;;;17.77;;
82005;SDS011;71529;47.484;19.064;2024-01-30T09:55:13;29.17;;;18.35;;
82005;SDS011;71529;47.484;19.064;2024-01-30T09:57:45;28.25;;;18.67;;
82005;SDS011;71529;47.484;19.064;2024-01-30T10:00:14;34.80;;;19.60;;
82005;SDS011;71529;47.484;19.064;2024-01-30T10:02:44;32.90;;;18.48;;
82005;SDS011;71529;47.484;19.064;2024-01-30T10:05:13;28.98;;;17.48;;
82005;SDS011;71529;47.484;19.064;2024-01-30T10:07:50;33.95;;;19.02;;
82005;SDS011;71529;47.484;19.064;2024-01-30T10:10:21;26.63;;;16.73;;
82005;SDS011;71529;47.484;19.064;2024-01-30T10:12:53;27.90;;;18.33;;
82005;SDS011;71529;47.484;19.064;2024-01-30T10:15:22;26.05;;;16.73;;
82005;SDS011;71529;47.484;19.064;2024-01-30T10:17:52;29.65;;;17.52;;
82005;SDS011;71529;47.484;19.064;2024-01-30T10:20:21;34.67;;;17.75;;
82005;SDS011;71529;47.484;19.064;2024-01-30T10:22:50;27.35;;;16.52;;
82005;SDS011;71529;47.484;19.064;2024-01-30T10:25:19;28.20;;;17.00;;
82005;SDS011;71529;47.484;19.064;2024-01-30T10:27:55;27.08;;;17.08;;
82005;SDS011;71529;47.484;19.064;2024-01-30T10:30:24;29.35;;;17.10;;
82005;SDS011;71529;47.484;19.064;2024-01-30T10:32:53;27.17;;;18.05;;
82005;SDS011;71529;47.484;19.064;2024-01-30T10:35:23;25.23;;;16.58;;
82005;SDS011;71529;47.484;19.064;2024-01-30T10:37:52;26.58;;;17.08;;
82005;SDS011;71529;47.484;19.064;2024-01-30T10:40:27;31.20;;;18.33;;
82005;SDS011;71529;47.484;19.064;2024-01-30T10:42:59;32.25;;;17.08;;
82005;SDS011;71529;47.484;19.064;2024-01-30T10:45:30;30.10;;;16.77;;
82005;SDS011;71529;47.484;19.064;2024-01-30T10:47:59;26.58;;;17.48;;
82005;SDS011;71529;47.484;19.064;2024-01-30T10:50:29;27.58;;;17.65;;
82005;SDS011;71529;47.484;19.064;2024-01-30T10:53:00;24.73;;;17.85;;
82005;SDS011;71529;47.484;19.064;2024-01-30T10:55:30;28.45;;;17.70;;
82005;SDS011;71529;47.484;19.064;2024-01-30T10:58:03;35.45;;;20.73;;
82005;SDS011;71529;47.484;19.064;2024-01-30T11:00:32;34.05;;;19.23;;
82005;SDS011;71529;47.484;19.064;2024-01-30T11:03:02;34.63;;;20.27;;
82005;SDS011;71529;47.484;19.064;2024-01-30T11:05:31;36.80;;;19.83;;
82005;SDS011;71529;47.484;19.064;2024-01-30T11:08:10;29.40;;;18.58;;
82005;SDS011;71529;47.484;19.064;2024-01-30T11:10:46;28.30;;;17.88;;
82005;SDS011;71529;47.484;19.064;2024-01-30T11:13:18;27.92;;;16.88;;
82005;SDS011;71529;47.484;19.064;2024-01-30T11:15:47;29.02;;;18.23;;
82005;SDS011;71529;47.484;19.064;2024-01-30T11:18:23;24.77;;;17.13;;
82005;SDS011;71529;47.484;19.064;2024-01-30T11:20:53;29.05;;;19.48;;
82005;SDS011;71529;47.484;19.064;2024-01-30T11:23:26;28.02;;;18.17;;
82005;SDS011;71529;47.484;19.064;2024-01-30T11:25:56;33.10;;;16.42;;
82005;SDS011;71529;47.484;19.064;2024-01-30T11:28:32;24.90;;;16.95;;
82005;SDS011;71529;47.484;19.064;2024-01-30T11:31:03;25.20;;;16.50;;
82005;SDS011;71529;47.484;19.064;2024-01-30T11:33:32;26.92;;;17.63;;
82005;SDS011;71529;47.484;19.064;2024-01-30T11:36:01;29.25;;;17.52;;
82005;SDS011;71529;47.484;19.064;2024-01-30T11:38:32;29.85;;;17.42;;
82005;SDS011;71529;47.484;19.064;2024-01-30T11:41:02;30.30;;;16.48;;
82005;SDS011;71529;47.484;19.064;2024-01-30T11:43:35;29.08;;;16.88;;
82005;SDS011;71529;47.484;19.064;2024-01-30T11:46:05;28.83;;;16.08;;
82005;SDS011;71529;47.484;19.064;2024-01-30T11:48:36;28.52;;;17.27;;
82005;SDS011;71529;47.484;19.064;2024-01-30T11:51:05;21.45;;;16.15;;
82005;SDS011;71529;47.484;19.064;2024-01-30T11:53:34;24.00;;;15.20;;
82005;SDS011;71529;47.484;19.064;2024-01-30T11:56:05;25.98;;;14.98;;
82005;SDS011;71529;47.484;19.064;2024-01-30T11:58:38;23.88;;;15.30;;
82005;SDS011;71529;47.484;19.064;2024-01-30T12:01:11;23.60;;;14.48;;
82005;SDS011;71529;47.484;19.064;2024-01-30T12:03:40;24.17;;;15.13;;
82005;SDS011;71529;47.484;19.064;2024-01-30T12:06:09;25.58;;;14.20;;
82005;SDS011;71529;47.484;19.064;2024-01-30T12:08:38;23.80;;;13.98;;
82005;SDS011;71529;47.484;19.064;2024-01-30T12:11:08;24.40;;;15.55;;
82005;SDS011;71529;47.484;19.064;2024-01-30T12:13:40;26.92;;;14.88;;
82005;SDS011;71529;47.484;19.064;2024-01-30T12:16:10;21.13;;;13.30;;
82005;SDS011;71529;47.484;19.064;2024-01-30T12:18:39;21.63;;;14.00;;
82005;SDS011;71529;47.484;19.064;2024-01-30T12:21:08;22.42;;;14.27;;
82005;SDS011;71529;47.484;19.064;2024-01-30T12:23:37;20.60;;;13.65;;
82005;SDS011;71529;47.484;19.064;2024-01-30T12:26:06;17.85;;;12.32;;
82005;SDS011;71529;47.484;19.064;2024-01-30T12:28:35;22.52;;;12.23;;
82005;SDS011;71529;47.484;19.064;2024-01-30T12:31:06;20.52;;;14.95;;
82005;SDS011;71529;47.484;19.064;2024-01-30T12:33:37;20.70;;;12.43;;
82005;SDS011;71529;47.484;19.064;2024-01-30T12:36:06;24.05;;;12.60;;
82005;SDS011;71529;47.484;19.064;2024-01-30T12:38:35;25.05;;;12.63;;
82005;SDS011;71529;47.484;19.064;2024-01-30T12:41:06;20.73;;;12.30;;
82005;SDS011;71529;47.484;19.064;2024-01-30T12:43:36;21.80;;;13.38;;
82005;SDS011;71529;47.484;19.064;2024-01-30T12:46:07;19.60;;;13.05;;
82005;SDS011;71529;47.484;19.064;2024-01-30T12:48:37;20.83;;;12.45;;
82005;SDS011;71529;47.484;19.064;2024-01-30T12:51:05;24.30;;;12.40;;
82005;SDS011;71529;47.484;19.064;2024-01-30T12:53:35;27.55;;;12.65;;
82005;SDS011;71529;47.484;19.064;2024-01-30T12:56:04;24.67;;;13.85;;
82005;SDS011;71529;47.484;19.064;2024-01-30T12:58:33;27.38;;;15.05;;
82005;SDS011;71529;47.484;19.064;2024-01-30T13:01:02;19.05;;;12.70;;
82005;SDS011;71529;47.484;19.064;2024-01-30T13:03:34;16.05;;;10.95;;
82005;SDS011;71529;47.484;19.064;2024-01-30T13:06:04;18.95;;;11.07;;
82005;SDS011;71529;47.484;19.064;2024-01-30T13:08:33;17.15;;;11.13;;
82005;SDS011;71529;47.484;19.064;2024-01-30T13:11:02;13.48;;;8.85;;
82005;SDS011;71529;47.484;19.064;2024-01-30T13:13:32;15.02;;;8.02;;
82005;SDS011;71529;47.484;19.064;2024-01-30T13:16:01;11.20;;;7.75;;
82005;SDS011;71529;47.484;19.064;2024-01-30T13:18:34;10.98;;;7.72;;
82005;SDS011;71529;47.484;19.064;2024-01-30T13:21:03;12.38;;;7.22;;
82005;SDS011;71529;47.484;19.064;2024-01-30T13:23:33;9.88;;;6.80;;
82005;SDS011;71529;47.484;19.064;2024-01-30T13:26:02;14.32;;;10.02;;
82005;SDS011;71529;47.484;19.064;2024-01-30T13:28:32;11.10;;;7.65;;
82005;SDS011;71529;47.484;19.064;2024-01-30T13:31:00;9.98;;;6.30;;
82005;SDS011;71529;47.484;19.064;2024-01-30T13:33:30;11.93;;;6.57;;
82005;SDS011;71529;47.484;19.064;2024-01-30T13:36:03;9.40;;;6.57;;
82005;SDS011;71529;47.484;19.064;2024-01-30T13:38:32;11.35;;;6.25;;
82005;SDS011;71529;47.484;19.064;2024-01-30T13:41:02;11.43;;;7.07;;
82005;SDS011;71529;47.484;19.064;2024-01-30T13:43:32;10.80;;;6.45;;
82005;SDS011;71529;47.484;19.064;2024-01-30T13:46:01;11.98;;;6.65;;
82005;SDS011;71529;47.484;19.064;2024-01-30T13:48:31;9.05;;;6.50;;
82005;SDS011;71529;47.484;19.064;2024-01-30T13:51:02;11.52;;;6.70;;
82005;SDS011;71529;47.484;19.064;2024-01-30T13:53:31;8.98;;;6.35;;
82005;SDS011;71529;47.484;19.064;2024-01-30T13:56:00;8.82;;;6.15;;
82005;SDS011;71529;47.484;19.064;2024-01-30T13:58:29;9.50;;;6.13;;
82005;SDS011;71529;47.484;19.064;2024-01-30T14:00:59;9.35;;;6.18;;
82005;SDS011;71529;47.484;19.064;2024-01-30T14:03:36;12.15;;;7.70;;
82005;SDS011;71529;47.484;19.064;2024-01-30T14:06:05;11.07;;;7.60;;
82005;SDS011;71529;47.484;19.064;2024-01-30T14:08:34;9.13;;;6.85;;
82005;SDS011;71529;47.484;19.064;2024-01-30T14:11:03;13.30;;;7.88;;
82005;SDS011;71529;47.484;19.064;2024-01-30T14:13:32;10.75;;;7.15;;
82005;SDS011;71529;47.484;19.064;2024-01-30T14:16:01;13.48;;;9.30;;
82005;SDS011;71529;47.484;19.064;2024-01-30T14:18:30;16.88;;;10.07;;
82005;SDS011;71529;47.484;19.064;2024-01-30T14:21:02;13.48;;;8.70;;
82005;SDS011;71529;47.484;19.064;2024-01-30T14:23:33;15.95;;;7.93;;
82005;SDS011;71529;47.484;19.064;2024-01-30T14:26:02;13.18;;;7.55;;
82005;SDS011;71529;47.484;19.064;2024-01-30T14:28:32;10.88;;;7.00;;
82005;SDS011;71529;47.484;19.064;2024-01-30T14:31:00;14.85;;;7.80;;
82005;SDS011;71529;47.484;19.064;2024-01-30T14:33:29;12.20;;;7.05;;